sensor_id;sensor_type;location;lat;lon;timestamp;P1;durP1;ratioP1;P2;durP2;ratioP2
19329;SDS011;9799;48.214;16.388;2024-03-23T00:53:43;15.80;;;12.93;;
19329;SDS011;9799;48.214;16.388;2024-03-23T00:57:04;13.57;;;11.37;;
19329;SDS011;9799;48.214;16.388;2024-03-23T01:00:25;18.40;;;11.83;;
19329;SDS011;9799;48.214;16.388;2024-03-23T01:03:46;15.47;;;12.93;;
19329;SDS011;9799;48.214;16.388;2024-03-23T01:07:07;14.30;;;12.23;;
19329;SDS011;9799;48.214;16.388;2024-03-23T01:10:29;17.27;;;13.07;;
19329;SDS011;9799;48.214;16.388;2024-03-23T01:13:50;36.17;;;13.40;;
19329;SDS011;9799;48.214;16.388;2024-03-23T01:17:11;16.27;;;12.67;;
19329;SDS011;9799;48.214;16.388;2024-03-23T01:20:31;14.00;;;12.47;;
19329;SDS011;9799;48.214;16.388;2024-03-23T01:23:52;14.23;;;12.73;;
19329;SDS011;9799;48.214;16.388;2024-03-23T01:27:15;15.80;;;12.40;;
19329;SDS011;9799;48.214;16.388;2024-03-23T01:30:36;15.23;;;13.60;;
19329;SDS011;9799;48.214;16.388;2024-03-23T01:33:57;15.10;;;12.37;;
19329;SDS011;9799;48.214;16.388;2024-03-23T01:37:17;18.70;;;13.77;;
19329;SDS011;9799;48.214;16.388;2024-03-23T01:40:39;15.47;;;12.57;;
19329;SDS011;9799;48.214;16.388;2024-03-23T01:44:00;14.03;;;11.93;;
19329;SDS011;9799;48.214;16.388;2024-03-23T01:47:26;17.57;;;12.33;;
19329;SDS011;9799;48.214;16.388;2024-03-23T01:50:47;15.43;;;12.77;;
19329;SDS011;9799;48.214;16.388;2024-03-23T01:54:09;15.93;;;13.27;;
19329;SDS011;9799;48.214;16.388;2024-03-23T01:57:29;15.20;;;12.63;;
19329;SDS011;9799;48.214;16.388;2024-03-23T02:00:52;13.90;;;12.33;;
19329;SDS011;9799;48.214;16.388;2024-03-23T02:04:12;17.57;;;12.77;;
19329;SDS011;9799;48.214;16.388;2024-03-23T02:07:33;14.93;;;12.27;;
19329;SDS011;9799;48.214;16.388;2024-03-23T02:10:55;14.50;;;13.07;;
19329;SDS011;9799;48.214;16.388;2024-03-23T02:14:16;14.90;;;13.17;;
19329;SDS011;9799;48.214;16.388;2024-03-23T02:17:37;14.57;;;13.07;;
19329;SDS011;9799;48.214;16.388;2024-03-23T02:20:58;17.70;;;12.80;;
19329;SDS011;9799;48.214;16.388;2024-03-23T02:24:21;13.77;;;12.27;;
19329;SDS011;9799;48.214;16.388;2024-03-23T02:27:43;13.87;;;12.37;;
19329;SDS011;9799;48.214;16.388;2024-03-23T02:31:03;16.03;;;12.63;;
19329;SDS011;9799;48.214;16.388;2024-03-23T02:34:25;16.87;;;12.93;;
19329;SDS011;9799;48.214;16.388;2024-03-23T02:37:45;14.03;;;12.53;;
19329;SDS011;9799;48.214;16.388;2024-03-23T02:41:09;15.03;;;13.23;;
19329;SDS011;9799;48.214;16.388;2024-03-23T02:44:30;15.63;;;13.13;;
19329;SDS011;9799;48.214;16.388;2024-03-23T02:47:51;18.13;;;12.60;;
19329;SDS011;9799;48.214;16.388;2024-03-23T02:51:12;14.33;;;12.43;;
19329;SDS011;9799;48.214;16.388;2024-03-23T02:54:33;17.03;;;11.77;;
19329;SDS011;9799;48.214;16.388;2024-03-23T02:57:55;18.80;;;12.60;;
19329;SDS011;9799;48.214;16.388;2024-03-23T03:01:21;16.10;;;12.33;;
19329;SDS011;9799;48.214;16.388;2024-03-23T03:04:42;15.53;;;12.63;;
19329;SDS011;9799;48.214;16.388;2024-03-23T03:08:02;16.80;;;12.87;;
19329;SDS011;9799;48.214;16.388;2024-03-23T03:11:24;15.10;;;12.40;;
19329;SDS011;9799;48.214;16.388;2024-03-23T03:14:46;18.00;;;13.70;;
19329;SDS011;9799;48.214;16.388;2024-03-23T03:18:07;18.87;;;13.07;;
19329;SDS011;9799;48.214;16.388;2024-03-23T03:21:27;15.63;;;12.30;;
19329;SDS011;9799;48.214;16.388;2024-03-23T03:24:49;15.53;;;12.27;;
19329;SDS011;9799;48.214;16.388;2024-03-23T03:28:10;16.10;;;13.10;;
19329;SDS011;9799;48.214;16.388;2024-03-23T03:31:32;15.30;;;12.80;;
19329;SDS011;9799;48.214;16.388;2024-03-23T03:34:53;18.03;;;13.70;;
19329;SDS011;9799;48.214;16.388;2024-03-23T03:38:13;14.70;;;13.20;;
19329;SDS011;9799;48.214;16.388;2024-03-23T03:41:34;16.17;;;13.20;;
19329;SDS011;9799;48.214;16.388;2024-03-23T03:44:56;16.37;;;13.73;;
19329;SDS011;9799;48.214;16.388;2024-03-23T03:48:17;15.13;;;12.93;;
19329;SDS011;9799;48.214;16.388;2024-03-23T03:51:39;14.90;;;12.87;;
19329;SDS011;9799;48.214;16.388;2024-03-23T03:55:01;15.80;;;13.27;;
19329;SDS011;9799;48.214;16.388;2024-03-23T03:58:22;16.17;;;13.90;;
19329;SDS011;9799;48.214;16.388;2024-03-23T04:01:43;16.30;;;12.43;;
19329;SDS011;9799;48.214;16.388;2024-03-23T04:05:06;14.77;;;13.20;;
19329;SDS011;9799;48.214;16.388;2024-03-23T04:08:27;16.00;;;13.87;;
19329;SDS011;9799;48.214;16.388;2024-03-23T04:11:48;17.33;;;12.83;;
19329;SDS011;9799;48.214;16.388;2024-03-23T04:15:10;15.23;;;13.63;;
19329;SDS011;9799;48.214;16.388;2024-03-23T04:18:31;18.80;;;13.47;;
19329;SDS011;9799;48.214;16.388;2024-03-23T04:21:54;22.90;;;13.40;;
19329;SDS011;9799;48.214;16.388;2024-03-23T04:25:14;17.27;;;13.67;;
19329;SDS011;9799;48.214;16.388;2024-03-23T04:28:35;17.43;;;13.87;;
19329;SDS011;9799;48.214;16.388;2024-03-23T04:31:56;14.90;;;13.40;;
19329;SDS011;9799;48.214;16.388;2024-03-23T04:35:17;19.00;;;14.73;;
19329;SDS011;9799;48.214;16.388;2024-03-23T04:38:40;14.63;;;13.13;;
19329;SDS011;9799;48.214;16.388;2024-03-23T04:42:02;14.50;;;13.00;;
19329;SDS011;9799;48.214;16.388;2024-03-23T04:45:23;13.93;;;12.53;;
19329;SDS011;9799;48.214;16.388;2024-03-23T04:48:44;20.13;;;12.87;;
19329;SDS011;9799;48.214;16.388;2024-03-23T04:52:06;15.60;;;13.50;;
19329;SDS011;9799;48.214;16.388;2024-03-23T04:55:28;15.87;;;14.27;;
19329;SDS011;9799;48.214;16.388;2024-03-23T04:58:50;14.83;;;13.30;;
19329;SDS011;9799;48.214;16.388;2024-03-23T05:02:10;18.20;;;14.07;;
19329;SDS011;9799;48.214;16.388;2024-03-23T05:05:31;19.40;;;13.27;;
19329;SDS011;9799;48.214;16.388;2024-03-23T05:08:52;16.40;;;13.27;;
19329;SDS011;9799;48.214;16.388;2024-03-23T05:12:14;15.97;;;14.27;;
19329;SDS011;9799;48.214;16.388;2024-03-23T05:15:35;16.53;;;13.03;;
19329;SDS011;9799;48.214;16.388;2024-03-23T05:18:56;15.50;;;12.97;;
19329;SDS011;9799;48.214;16.388;2024-03-23T05:22:17;15.67;;;13.03;;
19329;SDS011;9799;48.214;16.388;2024-03-23T05:25:38;16.77;;;13.83;;
19329;SDS011;9799;48.214;16.388;2024-03-23T05:29:01;17.60;;;13.43;;
19329;SDS011;9799;48.214;16.388;2024-03-23T05:32:22;15.00;;;12.03;;
19329;SDS011;9799;48.214;16.388;2024-03-23T05:35:44;18.83;;;13.40;;
19329;SDS011;9799;48.214;16.388;2024-03-23T05:39:04;15.60;;;13.23;;
19329;SDS011;9799;48.214;16.388;2024-03-23T05:42:25;16.73;;;13.70;;
19329;SDS011;9799;48.214;16.388;2024-03-23T05:45:47;18.17;;;12.73;;
19329;SDS011;9799;48.214;16.388;2024-03-23T05:49:15;16.77;;;13.73;;
19329;SDS011;9799;48.214;16.388;2024-03-23T05:52:37;14.50;;;12.87;;
19329;SDS011;9799;48.214;16.388;2024-03-23T05:56:01;16.87;;;13.67;;
19329;SDS011;9799;48.214;16.388;2024-03-23T05:59:23;17.37;;;12.63;;
19329;SDS011;9799;48.214;16.388;2024-03-23T06:02:46;15.07;;;13.20;;
19329;SDS011;9799;48.214;16.388;2024-03-23T06:06:07;15.97;;;13.13;;
19329;SDS011;9799;48.214;16.388;2024-03-23T06:09:31;18.83;;;13.47;;
19329;SDS011;9799;48.214;16.388;2024-03-23T06:12:52;19.20;;;13.17;;
19329;SDS011;9799;48.214;16.388;2024-03-23T06:16:12;21.87;;;13.43;;
19329;SDS011;9799;48.214;16.388;2024-03-23T06:19:35;16.83;;;13.00;;
19329;SDS011;9799;48.214;16.388;2024-03-23T06:22:56;15.10;;;13.07;;
19329;SDS011;9799;48.214;16.388;2024-03-23T06:26:18;14.27;;;12.77;;
19329;SDS011;9799;48.214;16.388;2024-03-23T06:29:38;15.13;;;12.33;;
19329;SDS011;9799;48.214;16.388;2024-03-23T06:32:59;15.27;;;13.07;;
19329;SDS011;9799;48.214;16.388;2024-03-23T06:36:21;14.43;;;12.77;;
19329;SDS011;9799;48.214;16.388;2024-03-23T06:39:42;13.90;;;12.40;;
19329;SDS011;9799;48.214;16.388;2024-03-23T06:43:02;17.47;;;13.57;;
19329;SDS011;9799;48.214;16.388;2024-03-23T06:46:23;19.90;;;13.43;;
19329;SDS011;9799;48.214;16.388;2024-03-23T06:49:44;17.03;;;13.40;;
19329;SDS011;9799;48.214;16.388;2024-03-23T06:53:07;18.73;;;13.70;;
19329;SDS011;9799;48.214;16.388;2024-03-23T06:56:28;18.77;;;13.87;;
19329;SDS011;9799;48.214;16.388;2024-03-23T06:59:48;15.77;;;14.03;;
19329;SDS011;9799;48.214;16.388;2024-03-23T07:03:10;15.13;;;13.60;;
19329;SDS011;9799;48.214;16.388;2024-03-23T07:06:30;15.00;;;13.47;;
19329;SDS011;9799;48.214;16.388;2024-03-23T07:09:52;15.87;;;13.30;;
19329;SDS011;9799;48.214;16.388;2024-03-23T07:13:14;14.20;;;11.67;;
19329;SDS011;9799;48.214;16.388;2024-03-23T07:16:34;17.77;;;12.73;;
19329;SDS011;9799;48.214;16.388;2024-03-23T07:19:55;14.93;;;12.53;;
19329;SDS011;9799;48.214;16.388;2024-03-23T07:23:16;14.50;;;13.00;;
19329;SDS011;9799;48.214;16.388;2024-03-23T07:26:38;14.23;;;12.67;;
19329;SDS011;9799;48.214;16.388;2024-03-23T07:29:59;14.77;;;13.03;;
19329;SDS011;9799;48.214;16.388;2024-03-23T07:33:20;16.63;;;12.17;;
19329;SDS011;9799;48.214;16.388;2024-03-23T07:36:41;13.30;;;11.93;;
19329;SDS011;9799;48.214;16.388;2024-03-23T07:40:02;14.27;;;12.23;;
19329;SDS011;9799;48.214;16.388;2024-03-23T07:43:24;16.67;;;12.17;;
19329;SDS011;9799;48.214;16.388;2024-03-23T07:46:45;13.73;;;12.20;;
19329;SDS011;9799;48.214;16.388;2024-03-23T07:50:06;14.50;;;12.00;;
19329;SDS011;9799;48.214;16.388;2024-03-23T07:53:27;13.87;;;12.43;;
19329;SDS011;9799;48.214;16.388;2024-03-23T07:56:49;18.87;;;11.70;;
19329;SDS011;9799;48.214;16.388;2024-03-23T08:00:12;14.23;;;12.47;;
19329;SDS011;9799;48.214;16.388;2024-03-23T08:03:33;13.50;;;12.20;;
19329;SDS011;9799;48.214;16.388;2024-03-23T08:06:55;13.63;;;11.67;;
19329;SDS011;9799;48.214;16.388;2024-03-23T08:10:16;14.57;;;12.70;;
19329;SDS011;9799;48.214;16.388;2024-03-23T08:13:38;12.63;;;11.43;;
19329;SDS011;9799;48.214;16.388;2024-03-23T08:17:01;15.00;;;13.47;;
19329;SDS011;9799;48.214;16.388;2024-03-23T08:20:22;14.20;;;12.67;;
19329;SDS011;9799;48.214;16.388;2024-03-23T08:23:43;14.50;;;12.87;;
19329;SDS011;9799;48.214;16.388;2024-03-23T08:27:04;22.67;;;13.03;;
19329;SDS011;9799;48.214;16.388;2024-03-23T08:30:25;13.63;;;12.23;;
19329;SDS011;9799;48.214;16.388;2024-03-23T08:33:48;14.60;;;12.43;;
19329;SDS011;9799;48.214;16.388;2024-03-23T08:37:09;13.33;;;11.97;;
19329;SDS011;9799;48.214;16.388;2024-03-23T08:40:30;12.00;;;10.80;;
19329;SDS011;9799;48.214;16.388;2024-03-23T08:43:51;12.03;;;9.30;;
19329;SDS011;9799;48.214;16.388;2024-03-23T08:47:12;11.60;;;8.83;;
19329;SDS011;9799;48.214;16.388;2024-03-23T08:50:35;13.63;;;8.93;;
19329;SDS011;9799;48.214;16.388;2024-03-23T08:53:56;10.23;;;8.63;;
19329;SDS011;9799;48.214;16.388;2024-03-23T08:57:17;12.00;;;8.73;;
19329;SDS011;9799;48.214;16.388;2024-03-23T09:00:38;11.60;;;8.57;;
19329;SDS011;9799;48.214;16.388;2024-03-23T09:03:59;7.93;;;7.23;;
19329;SDS011;9799;48.214;16.388;2024-03-23T09:07:21;8.90;;;8.10;;
19329;SDS011;9799;48.214;16.388;2024-03-23T09:10:42;9.50;;;8.53;;
19329;SDS011;9799;48.214;16.388;2024-03-23T09:14:04;8.90;;;8.00;;
19329;SDS011;9799;48.214;16.388;2024-03-23T09:17:25;8.60;;;7.77;;
19329;SDS011;9799;48.214;16.388;2024-03-23T09:20:46;10.03;;;7.00;;
19329;SDS011;9799;48.214;16.388;2024-03-23T09:24:09;6.93;;;5.90;;
19329;SDS011;9799;48.214;16.388;2024-03-23T09:27:29;7.20;;;5.43;;
19329;SDS011;9799;48.214;16.388;2024-03-23T09:30:50;6.07;;;5.27;;
19329;SDS011;9799;48.214;16.388;2024-03-23T09:34:11;12.37;;;5.83;;
19329;SDS011;9799;48.214;16.388;2024-03-23T09:37:32;10.23;;;5.10;;
19329;SDS011;9799;48.214;16.388;2024-03-23T09:40:54;4.47;;;4.07;;
19329;SDS011;9799;48.214;16.388;2024-03-23T09:44:15;4.60;;;3.70;;
19329;SDS011;9799;48.214;16.388;2024-03-23T09:47:37;6.63;;;4.20;;
19329;SDS011;9799;48.214;16.388;2024-03-23T09:50:58;6.47;;;4.57;;
19329;SDS011;9799;48.214;16.388;2024-03-23T09:54:19;6.13;;;4.40;;
19329;SDS011;9799;48.214;16.388;2024-03-23T09:57:42;4.63;;;4.20;;
19329;SDS011;9799;48.214;16.388;2024-03-23T10:01:04;5.93;;;3.80;;
19329;SDS011;9799;48.214;16.388;2024-03-23T10:04:38;5.13;;;4.63;;
19329;SDS011;9799;48.214;16.388;2024-03-23T10:08:00;5.47;;;4.13;;
19329;SDS011;9799;48.214;16.388;2024-03-23T10:11:38;5.10;;;4.13;;
19329;SDS011;9799;48.214;16.388;2024-03-23T10:15:01;4.80;;;4.17;;
19329;SDS011;9799;48.214;16.388;2024-03-23T10:18:23;5.63;;;4.30;;
19329;SDS011;9799;48.214;16.388;2024-03-23T10:21:52;9.00;;;5.13;;
19329;SDS011;9799;48.214;16.388;2024-03-23T10:25:12;5.70;;;3.70;;
19329;SDS011;9799;48.214;16.388;2024-03-23T10:28:34;5.60;;;4.60;;
19329;SDS011;9799;48.214;16.388;2024-03-23T10:32:08;6.70;;;3.73;;
19329;SDS011;9799;48.214;16.388;2024-03-23T10:35:30;4.60;;;3.90;;
19329;SDS011;9799;48.214;16.388;2024-03-23T10:38:51;4.97;;;3.83;;
19329;SDS011;9799;48.214;16.388;2024-03-23T10:42:12;6.07;;;4.40;;
19329;SDS011;9799;48.214;16.388;2024-03-23T10:45:34;6.00;;;4.60;;
19329;SDS011;9799;48.214;16.388;2024-03-23T10:48:56;7.22;;;4.57;;
19329;SDS011;9799;48.214;16.388;2024-03-23T10:52:17;8.65;;;4.15;;
19329;SDS011;9799;48.214;16.388;2024-03-23T10:55:38;4.97;;;4.47;;
19329;SDS011;9799;48.214;16.388;2024-03-23T10:59:00;7.25;;;5.07;;
19329;SDS011;9799;48.214;16.388;2024-03-23T11:02:26;7.53;;;4.63;;
19329;SDS011;9799;48.214;16.388;2024-03-23T11:05:50;4.65;;;3.60;;
19329;SDS011;9799;48.214;16.388;2024-03-23T11:12:59;5.22;;;3.58;;
19329;SDS011;9799;48.214;16.388;2024-03-23T11:16:44;3.63;;;3.00;;
19329;SDS011;9799;48.214;16.388;2024-03-23T11:20:05;4.68;;;2.20;;
19329;SDS011;9799;48.214;16.388;2024-03-23T11:23:30;4.00;;;2.60;;
19329;SDS011;9799;48.214;16.388;2024-03-23T11:26:50;3.28;;;2.40;;
19329;SDS011;9799;48.214;16.388;2024-03-23T11:30:12;4.00;;;1.95;;
19329;SDS011;9799;48.214;16.388;2024-03-23T11:33:33;5.82;;;2.63;;
19329;SDS011;9799;48.214;16.388;2024-03-23T11:37:02;4.43;;;2.40;;
19329;SDS011;9799;48.214;16.388;2024-03-23T11:40:25;4.35;;;2.67;;
19329;SDS011;9799;48.214;16.388;2024-03-23T11:43:46;2.70;;;2.20;;
19329;SDS011;9799;48.214;16.388;2024-03-23T11:47:07;2.95;;;2.28;;
19329;SDS011;9799;48.214;16.388;2024-03-23T11:50:28;4.97;;;2.45;;
19329;SDS011;9799;48.214;16.388;2024-03-23T11:53:49;6.00;;;2.90;;
19329;SDS011;9799;48.214;16.388;2024-03-23T11:57:11;2.20;;;2.00;;
19329;SDS011;9799;48.214;16.388;2024-03-23T12:00:32;6.43;;;2.70;;
19329;SDS011;9799;48.214;16.388;2024-03-23T12:03:52;4.15;;;2.22;;
19329;SDS011;9799;48.214;16.388;2024-03-23T12:07:14;4.05;;;2.20;;
19329;SDS011;9799;48.214;16.388;2024-03-23T12:10:38;6.10;;;2.80;;
19329;SDS011;9799;48.214;16.388;2024-03-23T12:14:00;3.40;;;3.00;;
19329;SDS011;9799;48.214;16.388;2024-03-23T12:17:21;2.92;;;2.63;;
19329;SDS011;9799;48.214;16.388;2024-03-23T12:20:41;2.83;;;2.60;;
19329;SDS011;9799;48.214;16.388;2024-03-23T12:24:03;9.50;;;3.10;;
19329;SDS011;9799;48.214;16.388;2024-03-23T12:27:24;5.07;;;3.17;;
19329;SDS011;9799;48.214;16.388;2024-03-23T12:30:46;2.97;;;2.50;;
19329;SDS011;9799;48.214;16.388;2024-03-23T12:34:07;4.18;;;2.42;;
19329;SDS011;9799;48.214;16.388;2024-03-23T12:37:28;5.05;;;2.80;;
19329;SDS011;9799;48.214;16.388;2024-03-23T12:40:49;2.70;;;2.50;;
19329;SDS011;9799;48.214;16.388;2024-03-23T12:44:11;3.00;;;2.47;;
19329;SDS011;9799;48.214;16.388;2024-03-23T12:47:34;4.18;;;2.45;;
19329;SDS011;9799;48.214;16.388;2024-03-23T12:50:55;4.28;;;2.63;;
19329;SDS011;9799;48.214;16.388;2024-03-23T12:54:15;2.58;;;2.25;;
19329;SDS011;9799;48.214;16.388;2024-03-23T12:57:36;5.57;;;2.25;;
19329;SDS011;9799;48.214;16.388;2024-03-23T13:00:58;11.90;;;3.72;;
19329;SDS011;9799;48.214;16.388;2024-03-23T13:04:19;8.48;;;3.50;;
19329;SDS011;9799;48.214;16.388;2024-03-23T13:07:41;13.27;;;3.30;;
19329;SDS011;9799;48.214;16.388;2024-03-23T13:11:02;6.10;;;2.17;;
19329;SDS011;9799;48.214;16.388;2024-03-23T13:14:23;10.93;;;2.67;;
19329;SDS011;9799;48.214;16.388;2024-03-23T13:17:44;6.53;;;1.80;;
19329;SDS011;9799;48.214;16.388;2024-03-23T13:21:06;3.17;;;1.45;;
19329;SDS011;9799;48.214;16.388;2024-03-23T13:24:28;1.65;;;1.50;;
19329;SDS011;9799;48.214;16.388;2024-03-23T13:27:48;6.53;;;1.67;;
19329;SDS011;9799;48.214;16.388;2024-03-23T13:31:10;1.87;;;1.60;;
19329;SDS011;9799;48.214;16.388;2024-03-23T13:34:31;4.70;;;1.50;;
19329;SDS011;9799;48.214;16.388;2024-03-23T13:37:54;1.70;;;1.20;;
19329;SDS011;9799;48.214;16.388;2024-03-23T13:41:14;1.40;;;1.20;;
19329;SDS011;9799;48.214;16.388;2024-03-23T13:44:35;2.47;;;1.30;;
19329;SDS011;9799;48.214;16.388;2024-03-23T13:47:56;1.50;;;1.00;;
19329;SDS011;9799;48.214;16.388;2024-03-23T13:51:22;1.73;;;1.47;;
19329;SDS011;9799;48.214;16.388;2024-03-23T13:54:46;3.37;;;1.23;;
19329;SDS011;9799;48.214;16.388;2024-03-23T13:58:09;2.23;;;1.47;;
19329;SDS011;9799;48.214;16.388;2024-03-23T14:01:31;1.47;;;1.23;;
19329;SDS011;9799;48.214;16.388;2024-03-23T14:04:53;2.00;;;1.40;;
19329;SDS011;9799;48.214;16.388;2024-03-23T14:08:13;1.50;;;1.40;;
19329;SDS011;9799;48.214;16.388;2024-03-23T14:11:36;2.57;;;1.37;;
19329;SDS011;9799;48.214;16.388;2024-03-23T14:14:57;3.97;;;1.30;;
19329;SDS011;9799;48.214;16.388;2024-03-23T14:18:17;1.90;;;1.70;;
19329;SDS011;9799;48.214;16.388;2024-03-23T14:21:38;2.53;;;1.60;;
19329;SDS011;9799;48.214;16.388;2024-03-23T14:25:00;1.83;;;1.40;;
19329;SDS011;9799;48.214;16.388;2024-03-23T14:28:21;2.60;;;1.33;;
19329;SDS011;9799;48.214;16.388;2024-03-23T14:31:43;1.80;;;1.50;;
19329;SDS011;9799;48.214;16.388;2024-03-23T14:35:03;3.17;;;1.70;;
19329;SDS011;9799;48.214;16.388;2024-03-23T14:38:25;1.90;;;1.70;;
19329;SDS011;9799;48.214;16.388;2024-03-23T14:41:46;2.27;;;2.07;;
19329;SDS011;9799;48.214;16.388;2024-03-23T14:45:09;4.43;;;1.80;;
19329;SDS011;9799;48.214;16.388;2024-03-23T14:48:30;2.77;;;1.63;;
19329;SDS011;9799;48.214;16.388;2024-03-23T14:51:52;1.97;;;1.80;;
19329;SDS011;9799;48.214;16.388;2024-03-23T14:55:13;1.77;;;1.67;;
19329;SDS011;9799;48.214;16.388;2024-03-23T14:58:34;2.67;;;1.70;;
19329;SDS011;9799;48.214;16.388;2024-03-23T15:01:57;2.23;;;1.90;;
19329;SDS011;9799;48.214;16.388;2024-03-23T15:05:19;1.67;;;1.43;;
19329;SDS011;9799;48.214;16.388;2024-03-23T15:08:40;1.73;;;1.63;;
19329;SDS011;9799;48.214;16.388;2024-03-23T15:12:00;1.30;;;1.20;;
19329;SDS011;9799;48.214;16.388;2024-03-23T15:15:21;2.03;;;1.40;;
19329;SDS011;9799;48.214;16.388;2024-03-23T15:18:43;1.53;;;1.43;;
19329;SDS011;9799;48.214;16.388;2024-03-23T15:22:04;2.27;;;1.67;;
19329;SDS011;9799;48.214;16.388;2024-03-23T15:25:24;3.20;;;1.90;;
19329;SDS011;9799;48.214;16.388;2024-03-23T15:28:47;1.70;;;1.20;;
19329;SDS011;9799;48.214;16.388;2024-03-23T15:32:29;1.90;;;1.60;;
19329;SDS011;9799;48.214;16.388;2024-03-23T15:35:51;1.37;;;1.13;;
19329;SDS011;9799;48.214;16.388;2024-03-23T15:39:13;1.83;;;1.40;;
19329;SDS011;9799;48.214;16.388;2024-03-23T15:42:34;2.60;;;2.00;;
19329;SDS011;9799;48.214;16.388;2024-03-23T15:45:54;3.00;;;1.70;;
19329;SDS011;9799;48.214;16.388;2024-03-23T15:49:15;1.43;;;1.13;;
19329;SDS011;9799;48.214;16.388;2024-03-23T15:52:38;2.00;;;1.17;;
19329;SDS011;9799;48.214;16.388;2024-03-23T15:55:59;1.27;;;1.17;;
19329;SDS011;9799;48.214;16.388;2024-03-23T15:59:20;1.73;;;1.27;;
19329;SDS011;9799;48.214;16.388;2024-03-23T16:02:41;1.30;;;1.10;;
19329;SDS011;9799;48.214;16.388;2024-03-23T16:06:03;1.73;;;1.30;;
19329;SDS011;9799;48.214;16.388;2024-03-23T16:09:27;2.20;;;1.03;;
19329;SDS011;9799;48.214;16.388;2024-03-23T16:12:48;0.93;;;0.80;;
19329;SDS011;9799;48.214;16.388;2024-03-23T16:16:10;1.73;;;1.63;;
19329;SDS011;9799;48.214;16.388;2024-03-23T16:19:31;1.47;;;1.30;;
19329;SDS011;9799;48.214;16.388;2024-03-23T16:22:52;1.80;;;1.30;;
19329;SDS011;9799;48.214;16.388;2024-03-23T16:26:14;1.90;;;1.10;;
19329;SDS011;9799;48.214;16.388;2024-03-23T16:29:36;1.20;;;1.00;;
19329;SDS011;9799;48.214;16.388;2024-03-23T16:32:56;1.13;;;1.00;;
19329;SDS011;9799;48.214;16.388;2024-03-23T16:36:18;1.13;;;1.03;;
19329;SDS011;9799;48.214;16.388;2024-03-23T16:39:38;1.60;;;1.23;;
19329;SDS011;9799;48.214;16.388;2024-03-23T16:43:01;2.97;;;1.10;;
19329;SDS011;9799;48.214;16.388;2024-03-23T16:46:22;1.10;;;0.90;;
19329;SDS011;9799;48.214;16.388;2024-03-23T16:49:43;1.43;;;1.20;;
19329;SDS011;9799;48.214;16.388;2024-03-23T16:53:04;1.40;;;1.30;;
19329;SDS011;9799;48.214;16.388;2024-03-23T16:56:25;2.13;;;1.50;;
19329;SDS011;9799;48.214;16.388;2024-03-23T16:59:47;1.60;;;1.50;;
19329;SDS011;9799;48.214;16.388;2024-03-23T17:03:09;2.27;;;1.87;;
19329;SDS011;9799;48.214;16.388;2024-03-23T17:06:30;1.60;;;1.40;;
19329;SDS011;9799;48.214;16.388;2024-03-23T17:09:51;2.63;;;2.03;;
19329;SDS011;9799;48.214;16.388;2024-03-23T17:13:11;2.77;;;2.13;;
19329;SDS011;9799;48.214;16.388;2024-03-23T17:16:35;2.40;;;1.53;;
19329;SDS011;9799;48.214;16.388;2024-03-23T17:19:58;1.40;;;1.30;;
19329;SDS011;9799;48.214;16.388;2024-03-23T17:23:22;1.93;;;1.70;;
19329;SDS011;9799;48.214;16.388;2024-03-23T17:26:43;2.60;;;1.57;;
19329;SDS011;9799;48.214;16.388;2024-03-23T17:30:04;1.53;;;1.40;;
19329;SDS011;9799;48.214;16.388;2024-03-23T17:33:27;2.17;;;1.57;;
19329;SDS011;9799;48.214;16.388;2024-03-23T17:36:47;2.13;;;1.67;;
19329;SDS011;9799;48.214;16.388;2024-03-23T17:40:09;2.53;;;1.77;;
19329;SDS011;9799;48.214;16.388;2024-03-23T17:43:30;5.33;;;1.90;;
19329;SDS011;9799;48.214;16.388;2024-03-23T17:46:53;1.70;;;1.60;;
19329;SDS011;9799;48.214;16.388;2024-03-23T17:50:14;1.67;;;1.57;;
19329;SDS011;9799;48.214;16.388;2024-03-23T17:53:38;3.87;;;1.80;;
19329;SDS011;9799;48.214;16.388;2024-03-23T17:56:59;1.63;;;1.53;;
19329;SDS011;9799;48.214;16.388;2024-03-23T18:00:20;2.27;;;2.07;;
19329;SDS011;9799;48.214;16.388;2024-03-23T18:03:41;2.47;;;1.87;;
19329;SDS011;9799;48.214;16.388;2024-03-23T18:07:03;3.00;;;2.07;;
19329;SDS011;9799;48.214;16.388;2024-03-23T18:10:24;2.53;;;1.80;;
19329;SDS011;9799;48.214;16.388;2024-03-23T18:13:45;1.77;;;1.67;;
19329;SDS011;9799;48.214;16.388;2024-03-23T18:17:06;2.10;;;1.80;;
19329;SDS011;9799;48.214;16.388;2024-03-23T18:20:26;1.97;;;1.70;;
19329;SDS011;9799;48.214;16.388;2024-03-23T18:23:49;2.07;;;1.70;;
19329;SDS011;9799;48.214;16.388;2024-03-23T18:27:10;5.00;;;2.40;;
19329;SDS011;9799;48.214;16.388;2024-03-23T18:30:32;2.00;;;1.80;;
19329;SDS011;9799;48.214;16.388;2024-03-23T18:33:53;2.93;;;1.63;;
19329;SDS011;9799;48.214;16.388;2024-03-23T18:37:16;1.63;;;1.53;;
19329;SDS011;9799;48.214;16.388;2024-03-23T18:40:43;2.20;;;1.93;;
19329;SDS011;9799;48.214;16.388;2024-03-23T18:44:03;12.37;;;8.27;;
19329;SDS011;9799;48.214;16.388;2024-03-23T18:47:25;5.60;;;4.40;;
19329;SDS011;9799;48.214;16.388;2024-03-23T18:50:45;2.37;;;2.17;;
19329;SDS011;9799;48.214;16.388;2024-03-23T18:54:07;3.83;;;2.50;;
19329;SDS011;9799;48.214;16.388;2024-03-23T18:57:28;2.00;;;1.90;;
19329;SDS011;9799;48.214;16.388;2024-03-23T19:00:54;3.67;;;2.50;;
19329;SDS011;9799;48.214;16.388;2024-03-23T19:04:15;4.07;;;2.50;;
19329;SDS011;9799;48.214;16.388;2024-03-23T19:07:36;2.63;;;2.30;;
19329;SDS011;9799;48.214;16.388;2024-03-23T19:10:57;2.90;;;2.27;;
19329;SDS011;9799;48.214;16.388;2024-03-23T19:14:21;2.70;;;2.17;;
19329;SDS011;9799;48.214;16.388;2024-03-23T19:17:42;4.20;;;2.80;;
19329;SDS011;9799;48.214;16.388;2024-03-23T19:21:03;3.17;;;2.87;;
19329;SDS011;9799;48.214;16.388;2024-03-23T19:24:25;3.03;;;2.70;;
19329;SDS011;9799;48.214;16.388;2024-03-23T19:27:46;3.83;;;2.50;;
19329;SDS011;9799;48.214;16.388;2024-03-23T19:31:08;2.90;;;2.60;;
19329;SDS011;9799;48.214;16.388;2024-03-23T19:34:31;3.03;;;2.50;;
19329;SDS011;9799;48.214;16.388;2024-03-23T19:37:52;3.47;;;2.93;;
19329;SDS011;9799;48.214;16.388;2024-03-23T19:41:13;3.37;;;3.07;;
19329;SDS011;9799;48.214;16.388;2024-03-23T19:44:34;3.93;;;2.60;;
19329;SDS011;9799;48.214;16.388;2024-03-23T19:47:55;3.00;;;2.70;;
19329;SDS011;9799;48.214;16.388;2024-03-23T19:51:17;3.20;;;2.90;;
19329;SDS011;9799;48.214;16.388;2024-03-23T19:54:39;2.60;;;2.37;;
19329;SDS011;9799;48.214;16.388;2024-03-23T19:58:00;3.07;;;2.33;;
19329;SDS011;9799;48.214;16.388;2024-03-23T20:01:22;2.23;;;1.80;;
19329;SDS011;9799;48.214;16.388;2024-03-23T20:04:45;2.53;;;2.33;;
19329;SDS011;9799;48.214;16.388;2024-03-23T20:08:07;3.00;;;2.20;;
19329;SDS011;9799;48.214;16.388;2024-03-23T20:11:29;2.53;;;2.33;;
19329;SDS011;9799;48.214;16.388;2024-03-23T20:14:49;3.67;;;2.20;;
19329;SDS011;9799;48.214;16.388;2024-03-23T20:18:11;3.10;;;2.17;;
19329;SDS011;9799;48.214;16.388;2024-03-23T20:21:34;1.50;;;1.40;;
19329;SDS011;9799;48.214;16.388;2024-03-23T20:24:56;2.30;;;1.87;;
19329;SDS011;9799;48.214;16.388;2024-03-23T20:28:17;2.60;;;2.20;;
19329;SDS011;9799;48.214;16.388;2024-03-23T20:31:38;1.60;;;1.50;;
19329;SDS011;9799;48.214;16.388;2024-03-23T20:34:59;2.37;;;2.00;;
19329;SDS011;9799;48.214;16.388;2024-03-23T20:38:22;4.30;;;2.27;;
19329;SDS011;9799;48.214;16.388;2024-03-23T20:41:42;3.40;;;2.00;;
19329;SDS011;9799;48.214;16.388;2024-03-23T20:45:04;2.10;;;1.90;;
19329;SDS011;9799;48.214;16.388;2024-03-23T20:48:25;2.47;;;1.97;;
19329;SDS011;9799;48.214;16.388;2024-03-23T20:51:47;6.77;;;4.53;;
19329;SDS011;9799;48.214;16.388;2024-03-23T20:55:10;2.10;;;2.00;;